createdAt,value
2023-05-14T00:01:08.241Z,5.30
2023-05-14T00:05:19.820Z,5.10
2023-05-14T00:09:32.705Z,5.38
2023-05-14T00:13:44.464Z,5.22
2023-05-14T00:17:56.157Z,5.22
2023-05-14T00:22:08.970Z,5.47
2023-05-14T00:26:21.538Z,4.93
2023-05-14T00:30:33.437Z,5.65
2023-05-14T00:34:45.084Z,5.53
2023-05-14T00:38:56.792Z,5.97
2023-05-14T00:43:08.399Z,5.85
2023-05-14T00:47:20.142Z,5.57
2023-05-14T00:51:31.807Z,5.93
2023-05-14T00:55:43.516Z,5.50
2023-05-14T00:59:55.643Z,5.70
2023-05-14T01:04:08.196Z,6.25
2023-05-14T01:08:41.854Z,5.72
2023-05-14T01:13:07.805Z,5.78
2023-05-14T01:17:22.975Z,5.57
2023-05-14T01:21:38.630Z,5.82
2023-05-14T01:25:50.363Z,6.40
2023-05-14T01:30:57.190Z,6.13
2023-05-14T01:35:10.375Z,6.35
2023-05-14T01:39:23.716Z,6.05
2023-05-14T01:43:36.103Z,6.65
2023-05-14T01:47:48.074Z,6.10
2023-05-14T01:51:59.775Z,6.30
2023-05-14T01:56:11.447Z,6.30
2023-05-14T02:00:27.536Z,6.75
2023-05-14T02:04:39.199Z,6.78
2023-05-14T02:08:50.950Z,6.20
2023-05-14T02:13:03.953Z,7.10
2023-05-14T02:17:17.711Z,6.20
2023-05-14T02:21:29.336Z,6.68
2023-05-14T02:25:41.000Z,6.70
2023-05-14T02:29:52.901Z,6.85
2023-05-14T02:34:06.677Z,7.18
2023-05-14T02:38:18.759Z,7.88
2023-05-14T02:42:30.463Z,7.38
2023-05-14T02:46:42.913Z,7.53
2023-05-14T02:50:54.619Z,8.18
2023-05-14T02:55:06.713Z,7.32
2023-05-14T02:59:18.444Z,7.30
2023-05-14T03:03:31.011Z,8.00
2023-05-14T03:07:43.201Z,7.78
2023-05-14T03:11:55.036Z,8.20
2023-05-14T03:16:06.826Z,7.68
2023-05-14T03:20:18.572Z,7.97
2023-05-14T03:24:31.552Z,8.57
2023-05-14T03:28:44.161Z,8.20
2023-05-14T03:32:55.915Z,8.00
2023-05-14T03:37:07.613Z,8.25
2023-05-14T03:41:20.069Z,8.18
2023-05-14T03:45:32.378Z,7.95
2023-05-14T03:49:44.127Z,7.68
2023-05-14T03:54:01.280Z,8.05
2023-05-14T03:58:14.048Z,8.82
2023-05-14T04:02:25.924Z,8.32
2023-05-14T04:06:37.657Z,8.65
2023-05-14T04:10:49.997Z,7.95
2023-05-14T04:15:01.850Z,8.63
2023-05-14T04:19:14.020Z,8.40
2023-05-14T04:23:26.875Z,7.82
2023-05-14T04:27:38.489Z,8.45
2023-05-14T04:31:50.119Z,7.97
2023-05-14T04:36:02.016Z,8.57
2023-05-14T04:40:13.708Z,8.32
2023-05-14T04:44:26.249Z,8.73
2023-05-14T04:48:37.824Z,7.50
2023-05-14T04:52:49.412Z,8.18
2023-05-14T04:57:03.983Z,7.90
2023-05-14T05:01:15.885Z,7.30
2023-05-14T05:05:27.505Z,7.50
2023-05-14T05:09:39.172Z,7.60
2023-05-14T05:13:50.708Z,7.65
2023-05-14T05:18:02.385Z,6.20
2023-05-14T05:22:14.023Z,6.07
2023-05-14T05:26:27.052Z,6.55
2023-05-14T05:30:38.802Z,6.47
2023-05-14T05:34:51.961Z,5.68
2023-05-14T05:39:03.739Z,6.35
2023-05-14T05:43:15.637Z,6.00
2023-05-14T05:47:27.414Z,5.80
2023-05-14T05:51:39.118Z,6.20
2023-05-14T05:55:53.648Z,5.57
2023-05-14T06:00:15.326Z,5.57
2023-05-14T06:04:26.904Z,5.97
2023-05-14T06:08:38.495Z,5.40
2023-05-14T06:12:50.395Z,5.68
2023-05-14T06:17:02.261Z,5.63
2023-05-14T06:21:14.048Z,5.20
2023-05-14T06:25:25.754Z,4.93
2023-05-14T06:29:38.065Z,5.50
2023-05-14T06:33:49.848Z,5.03
2023-05-14T06:38:01.537Z,4.43
2023-05-14T06:42:13.141Z,5.68
2023-05-14T06:46:24.761Z,5.15
2023-05-14T06:50:36.394Z,4.97
2023-05-14T06:54:48.043Z,4.97
2023-05-14T06:58:59.715Z,4.30
2023-05-14T07:03:11.471Z,4.90
2023-05-14T07:07:23.273Z,4.63
2023-05-14T07:11:34.981Z,4.75
2023-05-14T07:15:46.655Z,4.72
2023-05-14T07:19:58.346Z,4.40
2023-05-14T07:24:10.034Z,4.50
2023-05-14T07:28:21.636Z,4.32
2023-05-14T07:32:33.364Z,4.10
2023-05-14T07:36:45.411Z,4.22
2023-05-14T07:40:57.123Z,4.28
2023-05-14T07:45:09.888Z,4.38
2023-05-14T07:49:21.526Z,4.22
2023-05-14T07:53:33.188Z,4.28
2023-05-14T07:57:45.670Z,3.88
2023-05-14T08:01:57.531Z,3.55
2023-05-14T08:06:09.378Z,3.38
2023-05-14T08:10:21.264Z,3.35
2023-05-14T08:14:33.245Z,3.30
2023-05-14T08:18:44.944Z,2.95
2023-05-14T08:22:58.072Z,3.10
2023-05-14T08:27:09.924Z,3.15
2023-05-14T08:31:21.595Z,2.92
2023-05-14T08:35:33.308Z,3.22
2023-05-14T08:39:45.050Z,3.03
2023-05-14T08:44:12.976Z,2.83
2023-05-14T08:48:29.090Z,2.78
2023-05-14T08:52:41.006Z,2.60
2023-05-14T08:56:53.231Z,2.40
2023-05-14T09:01:04.974Z,2.58
2023-05-14T09:05:17.777Z,3.10
2023-05-14T09:09:30.000Z,2.72
2023-05-14T09:13:41.692Z,2.75
2023-05-14T09:17:53.587Z,2.67
2023-05-14T09:22:09.403Z,2.58
2023-05-14T09:26:24.103Z,2.88
2023-05-14T09:30:37.072Z,2.47
2023-05-14T09:34:48.735Z,2.65
2023-05-14T09:39:00.849Z,2.45
2023-05-14T09:43:13.031Z,2.30
2023-05-14T09:47:24.885Z,2.97
2023-05-14T09:51:38.483Z,2.75
2023-05-14T09:55:50.171Z,2.50
2023-05-14T10:00:01.911Z,2.80
2023-05-14T10:04:16.442Z,2.97
2023-05-14T10:08:33.599Z,2.88
2023-05-14T10:12:57.109Z,2.90
2023-05-14T10:17:18.114Z,2.58
2023-05-14T10:21:32.117Z,2.92
2023-05-14T10:25:43.968Z,2.65
2023-05-14T10:29:56.157Z,2.58
2023-05-14T10:34:37.990Z,2.75
2023-05-14T10:38:57.244Z,2.60
2023-05-14T10:43:11.326Z,2.40
2023-05-14T10:47:23.059Z,3.30
2023-05-14T10:51:36.412Z,2.20
2023-05-14T10:55:48.202Z,2.30
2023-05-14T11:00:01.314Z,2.00
2023-05-14T11:04:19.338Z,2.25
2023-05-14T11:08:32.572Z,2.50
2023-05-14T11:12:47.664Z,2.22
2023-05-14T11:16:59.365Z,2.03
2023-05-14T11:21:11.101Z,2.10
2023-05-14T11:25:25.735Z,2.00
2023-05-14T11:29:38.119Z,2.28
2023-05-14T11:33:49.687Z,2.70
2023-05-14T11:38:01.301Z,2.25
2023-05-14T11:42:14.732Z,2.83
2023-05-14T11:46:26.475Z,2.17
2023-05-14T11:50:38.161Z,2.28
2023-05-14T11:54:50.926Z,2.20
2023-05-14T11:59:02.774Z,2.50
2023-05-14T12:03:14.479Z,2.50
2023-05-14T12:07:30.428Z,3.10
2023-05-14T12:11:42.068Z,2.63
2023-05-14T12:15:58.459Z,2.80
2023-05-14T12:20:11.658Z,2.50
2023-05-14T12:24:25.637Z,2.53
2023-05-14T12:28:43.361Z,2.40
2023-05-14T12:32:55.478Z,2.67
2023-05-14T12:37:07.382Z,3.30
2023-05-14T12:41:19.075Z,3.58
2023-05-14T12:45:30.942Z,3.30
2023-05-14T12:49:42.549Z,2.80
2023-05-14T12:53:54.296Z,3.30
2023-05-14T12:58:05.904Z,3.65
2023-05-14T13:02:18.790Z,3.85
2023-05-14T13:06:31.710Z,3.35
2023-05-14T13:10:47.084Z,3.13
2023-05-14T13:14:58.751Z,3.45
2023-05-14T13:19:10.479Z,3.15
2023-05-14T13:23:22.312Z,2.63
2023-05-14T13:27:35.797Z,2.65
2023-05-14T13:31:47.432Z,2.83
2023-05-14T13:35:59.077Z,3.25
2023-05-14T13:40:11.187Z,3.03
2023-05-14T13:44:23.033Z,2.38
2023-05-14T13:48:35.934Z,2.65
2023-05-14T13:52:47.640Z,2.47
2023-05-14T13:56:59.258Z,2.88
2023-05-14T14:01:10.965Z,2.58
2023-05-14T14:05:23.987Z,3.10
2023-05-14T14:09:36.981Z,2.55
2023-05-14T14:13:48.732Z,2.70
2023-05-14T14:18:00.524Z,2.55
2023-05-14T14:22:14.053Z,2.55
2023-05-14T14:26:27.914Z,2.58
2023-05-14T14:30:39.780Z,2.60
2023-05-14T14:34:51.389Z,2.95
2023-05-14T14:39:03.058Z,2.83
2023-05-14T14:43:14.717Z,3.05
2023-05-14T14:47:26.341Z,2.55
2023-05-14T14:51:38.086Z,2.60
2023-05-14T14:55:50.476Z,2.25
2023-05-14T15:00:02.647Z,2.40
2023-05-14T15:04:14.536Z,2.60
2023-05-14T15:08:30.154Z,2.97
2023-05-14T15:12:41.841Z,2.50
2023-05-14T15:16:54.049Z,2.70
2023-05-14T15:21:05.910Z,2.58
2023-05-14T15:25:17.938Z,2.83
2023-05-14T15:29:29.625Z,2.92
2023-05-14T15:33:41.872Z,2.20
2023-05-14T15:37:59.285Z,2.75
2023-05-14T15:42:10.915Z,2.40
2023-05-14T15:46:23.632Z,3.20
2023-05-14T15:50:35.335Z,3.00
2023-05-14T15:54:47.204Z,3.13
2023-05-14T15:58:58.911Z,2.95
2023-05-14T16:03:11.131Z,3.20
2023-05-14T16:07:23.033Z,2.75
2023-05-14T16:11:34.698Z,2.78
2023-05-14T16:15:46.966Z,2.55
2023-05-14T16:20:00.874Z,2.67
2023-05-14T16:24:12.823Z,2.50
2023-05-14T16:28:24.527Z,2.53
2023-05-14T16:32:36.210Z,2.13
2023-05-14T16:36:47.948Z,2.58
2023-05-14T16:41:00.362Z,2.58
2023-05-14T16:45:12.102Z,2.70
2023-05-14T16:49:23.768Z,2.60
2023-05-14T16:53:36.062Z,2.38
2023-05-14T16:57:47.763Z,2.55
2023-05-14T17:01:59.559Z,2.63
2023-05-14T17:06:11.448Z,2.60
2023-05-14T17:10:25.258Z,2.63
2023-05-14T17:14:36.923Z,2.03
2023-05-14T17:18:49.181Z,2.20
2023-05-14T17:23:00.912Z,2.63
2023-05-14T17:27:13.807Z,2.35
2023-05-14T17:31:27.001Z,2.75
2023-05-14T17:35:38.901Z,2.50
2023-05-14T17:39:51.115Z,2.75
2023-05-14T17:44:02.818Z,2.70
2023-05-14T17:48:14.518Z,3.08
2023-05-14T17:52:26.324Z,3.13
2023-05-14T17:56:38.155Z,3.47
2023-05-14T18:00:49.859Z,3.50
2023-05-14T18:05:02.792Z,4.07
2023-05-14T18:09:15.285Z,4.07
2023-05-14T18:13:26.942Z,4.57
2023-05-14T18:17:38.631Z,4.40
2023-05-14T18:21:50.822Z,4.07
2023-05-14T18:26:02.699Z,4.63
2023-05-14T18:30:15.997Z,4.65
2023-05-14T18:34:27.709Z,4.93
2023-05-14T18:38:40.842Z,5.32
2023-05-14T18:42:52.537Z,4.60
2023-05-14T18:47:04.399Z,5.03
2023-05-14T18:51:16.133Z,5.10
2023-05-14T18:55:27.805Z,4.88
2023-05-14T18:59:39.495Z,5.63
2023-05-14T19:03:52.933Z,5.00
2023-05-14T19:08:04.829Z,4.93
2023-05-14T19:12:16.678Z,4.70
2023-05-14T19:16:28.465Z,4.40
2023-05-14T19:20:40.297Z,3.70
2023-05-14T19:24:51.957Z,4.35
2023-05-14T19:29:03.613Z,3.55
2023-05-14T19:33:15.435Z,4.22
2023-05-14T19:37:27.304Z,3.92
2023-05-14T19:41:39.061Z,4.22
2023-05-14T19:45:50.800Z,4.55
2023-05-14T19:50:02.516Z,4.45
2023-05-14T19:54:14.749Z,4.65
2023-05-14T19:58:26.684Z,4.60
2023-05-14T20:02:40.491Z,4.72
2023-05-14T20:06:52.761Z,4.85
2023-05-14T20:11:04.638Z,4.95
2023-05-14T20:15:16.333Z,5.05
2023-05-14T20:19:27.993Z,5.13
2023-05-14T20:23:39.741Z,5.38
2023-05-14T20:27:52.508Z,5.28
2023-05-14T20:32:04.405Z,5.25
2023-05-14T20:36:16.188Z,5.55
2023-05-14T20:40:27.908Z,5.20
2023-05-14T20:44:40.012Z,5.53
2023-05-14T20:48:54.533Z,5.50
2023-05-14T20:53:06.424Z,5.93
2023-05-14T20:57:18.917Z,5.35
2023-05-14T21:01:30.656Z,5.78
2023-05-14T21:05:43.724Z,5.13
2023-05-14T21:09:55.481Z,5.43
2023-05-14T21:14:07.123Z,5.72
2023-05-14T21:18:18.824Z,6.20
2023-05-14T21:22:30.582Z,5.65
2023-05-14T21:26:42.538Z,5.28
2023-05-14T21:30:54.173Z,6.18
2023-05-14T21:35:06.324Z,5.05
2023-05-14T21:39:18.037Z,5.50
2023-05-14T21:43:29.707Z,5.63
2023-05-14T21:47:41.466Z,5.88
2023-05-14T21:51:56.398Z,5.45
2023-05-14T21:56:08.315Z,5.57
2023-05-14T22:00:23.504Z,5.50
2023-05-14T22:04:35.448Z,6.32
2023-05-14T22:08:47.256Z,5.30
2023-05-14T22:12:59.032Z,5.88
2023-05-14T22:17:12.702Z,6.55
2023-05-14T22:21:24.348Z,6.28
2023-05-14T22:25:36.093Z,7.07
2023-05-14T22:29:47.713Z,5.93
2023-05-14T22:33:59.363Z,6.15
2023-05-14T22:38:11.023Z,6.13
2023-05-14T22:42:22.693Z,6.15
2023-05-14T22:46:34.391Z,7.18
2023-05-14T22:50:46.055Z,6.97
2023-05-14T22:54:57.640Z,6.65
2023-05-14T22:59:09.346Z,7.40
2023-05-14T23:03:21.109Z,6.93
2023-05-14T23:07:32.859Z,7.32
2023-05-14T23:11:44.474Z,7.15
2023-05-14T23:15:56.214Z,8.23
2023-05-14T23:20:10.787Z,7.80
2023-05-14T23:24:22.565Z,8.02
2023-05-14T23:28:34.211Z,7.82
2023-05-14T23:32:46.031Z,8.02
2023-05-14T23:36:57.770Z,7.93
2023-05-14T23:41:09.534Z,7.88
2023-05-14T23:45:21.181Z,7.88
2023-05-14T23:49:32.857Z,8.45
2023-05-14T23:53:44.573Z,8.18
2023-05-14T23:57:56.254Z,8.55
